createdAt,value
2019-06-10T00:00:42.033Z,71.90
2019-06-10T00:03:11.719Z,71.95
2019-06-10T00:05:41.438Z,71.69
2019-06-10T00:08:11.733Z,71.54
2019-06-10T00:10:42.105Z,71.78
2019-06-10T00:13:12.088Z,71.96
2019-06-10T00:15:41.480Z,72.06
2019-06-10T00:18:32.825Z,72.10
2019-06-10T00:20:41.226Z,72.19
2019-06-10T00:23:12.210Z,72.22
2019-06-10T00:25:41.485Z,72.38
2019-06-10T00:28:12.118Z,72.37
2019-06-10T00:30:41.392Z,72.21
2019-06-10T00:33:12.623Z,72.20
2019-06-10T00:35:41.365Z,72.11
2019-06-10T00:38:13.824Z,72.31
2019-06-10T00:40:41.653Z,72.56
2019-06-10T00:43:13.190Z,72.73
2019-06-10T00:45:41.249Z,72.89
2019-06-10T00:48:21.647Z,72.82
2019-06-10T00:50:41.519Z,72.61
2019-06-10T00:53:14.091Z,72.63
2019-06-10T00:55:41.736Z,72.89
2019-06-10T00:58:13.692Z,73.10
2019-06-10T01:00:41.792Z,72.69
2019-06-10T01:03:13.507Z,72.64
2019-06-10T01:05:42.280Z,72.72
2019-06-10T01:08:13.852Z,72.92
2019-06-10T01:10:43.873Z,73.07
2019-06-10T01:13:14.039Z,73.75
2019-06-10T01:15:42.818Z,73.28
2019-06-10T01:18:30.261Z,73.44
2019-06-10T01:20:41.825Z,73.45
2019-06-10T01:23:13.805Z,73.60
2019-06-10T01:25:42.203Z,73.65
2019-06-10T01:28:14.595Z,72.30
2019-06-10T01:30:41.985Z,72.35
2019-06-10T01:33:12.569Z,72.41
2019-06-10T01:35:41.681Z,72.31
2019-06-10T01:38:12.828Z,71.82
2019-06-10T01:40:42.331Z,71.83
2019-06-10T01:43:14.075Z,71.70
2019-06-10T01:45:42.273Z,71.71
2019-06-10T01:48:12.140Z,71.85
2019-06-10T01:50:41.613Z,71.96
2019-06-10T01:53:13.777Z,72.21
2019-06-10T01:55:41.805Z,72.33
2019-06-10T01:58:14.430Z,72.65
2019-06-10T02:01:01.305Z,72.40
2019-06-10T02:03:31.347Z,72.29
2019-06-10T02:06:01.453Z,72.27
2019-06-10T02:08:31.656Z,72.52
2019-06-10T02:11:01.240Z,73.05
2019-06-10T02:13:33.022Z,73.28
2019-06-10T02:16:05.526Z,73.08
2019-06-10T02:18:34.186Z,73.01
2019-06-10T02:21:02.827Z,73.50
2019-06-10T02:23:31.824Z,73.29
2019-06-10T02:26:01.388Z,73.14
2019-06-10T02:28:31.751Z,73.35
2019-06-10T02:31:03.472Z,73.27
2019-06-10T02:33:36.178Z,72.71
2019-06-10T02:36:04.261Z,73.21
2019-06-10T02:38:38.657Z,72.98
2019-06-10T02:41:04.338Z,72.78
2019-06-10T02:43:37.391Z,72.59
2019-06-10T02:46:05.024Z,73.11
2019-06-10T02:48:35.380Z,73.15
2019-06-10T02:51:06.340Z,73.01
2019-06-10T02:53:37.010Z,72.98
2019-06-10T02:56:07.207Z,72.97
2019-06-10T02:58:38.965Z,73.21
2019-06-10T03:01:06.702Z,73.13
2019-06-10T03:03:43.715Z,72.65
2019-06-10T03:06:08.510Z,72.57
2019-06-10T03:08:36.895Z,72.51
2019-06-10T03:11:06.018Z,72.76
2019-06-10T03:13:34.985Z,72.90
2019-06-10T03:16:13.013Z,73.19
2019-06-10T03:18:43.422Z,73.84
2019-06-10T03:21:12.439Z,73.86
2019-06-10T03:23:42.662Z,73.25
2019-06-10T03:26:12.340Z,73.69
2019-06-10T03:28:42.724Z,73.98
2019-06-10T03:31:15.128Z,74.12
2019-06-10T03:33:47.289Z,74.09
2019-06-10T03:36:12.613Z,73.42
2019-06-10T03:38:43.320Z,73.49
2019-06-10T03:41:12.490Z,73.41
2019-06-10T03:43:42.966Z,72.93
2019-06-10T03:46:13.655Z,73.00
2019-06-10T03:48:43.270Z,72.85
2019-06-10T03:51:12.750Z,72.97
2019-06-10T03:53:42.553Z,72.45
2019-06-10T03:56:12.848Z,72.67
2019-06-10T03:58:43.020Z,71.76
2019-06-10T04:01:12.435Z,71.53
2019-06-10T04:03:42.726Z,71.19
2019-06-10T04:06:12.889Z,71.58
2019-06-10T04:08:43.320Z,70.57
2019-06-10T04:11:12.397Z,70.39
2019-06-10T04:13:43.187Z,70.45
2019-06-10T04:16:13.026Z,69.96
2019-06-10T04:18:43.025Z,69.96
2019-06-10T04:21:12.886Z,69.41
2019-06-10T04:23:42.536Z,68.91
2019-06-10T04:26:12.697Z,69.16
2019-06-10T04:28:42.924Z,68.46
2019-06-10T04:31:13.062Z,68.71
2019-06-10T04:33:42.431Z,68.87
2019-06-10T04:36:13.213Z,68.89
2019-06-10T04:38:43.136Z,68.49
2019-06-10T04:41:12.695Z,68.09
2019-06-10T04:43:43.178Z,67.85
2019-06-10T04:46:12.682Z,67.17
2019-06-10T04:48:42.607Z,67.26
2019-06-10T04:51:12.925Z,66.18
2019-06-10T04:53:43.554Z,66.44
2019-06-10T04:56:12.562Z,66.89
2019-06-10T04:58:43.221Z,66.67
2019-06-10T05:01:12.272Z,66.86
2019-06-10T05:03:43.312Z,66.85
2019-06-10T05:06:12.391Z,66.14
2019-06-10T05:08:42.619Z,66.37
2019-06-10T05:11:12.760Z,66.09
2019-06-10T05:13:42.872Z,66.00
2019-06-10T05:16:12.515Z,65.11
2019-06-10T05:18:42.368Z,65.23
2019-06-10T05:21:13.033Z,64.45
2019-06-10T05:23:42.951Z,64.42
2019-06-10T05:26:13.320Z,63.81
2019-06-10T05:28:43.277Z,63.20
2019-06-10T05:31:12.915Z,62.29
2019-06-10T05:33:42.562Z,61.29
2019-06-10T05:36:13.210Z,60.26
2019-06-10T05:38:43.571Z,59.31
2019-06-10T05:41:13.345Z,58.98
2019-06-10T05:43:42.964Z,56.08
2019-06-10T05:46:13.480Z,56.21
2019-06-10T05:48:43.725Z,54.04
2019-06-10T05:51:12.685Z,53.72
2019-06-10T05:53:42.680Z,53.56
2019-06-10T05:56:12.915Z,52.66
2019-06-10T05:58:43.631Z,51.77
2019-06-10T06:01:13.206Z,51.36
2019-06-10T06:03:44.012Z,50.26
2019-06-10T06:06:12.777Z,50.47
2019-06-10T06:08:42.856Z,50.62
2019-06-10T06:11:12.638Z,47.11
2019-06-10T06:13:43.165Z,47.46
2019-06-10T06:16:12.778Z,45.54
2019-06-10T06:18:42.422Z,44.84
2019-06-10T06:21:25.487Z,45.00
2019-06-10T06:23:43.670Z,45.95
2019-06-10T06:26:16.559Z,45.23
2019-06-10T06:28:43.446Z,41.06
2019-06-10T06:31:12.654Z,41.47
2019-06-10T06:33:43.340Z,43.43
2019-06-10T06:36:12.707Z,43.03
2019-06-10T06:38:43.725Z,40.94
2019-06-10T06:41:13.662Z,42.32
2019-06-10T06:43:45.248Z,41.65
2019-06-10T06:46:12.972Z,40.36
2019-06-10T06:48:43.934Z,40.12
2019-06-10T06:51:12.978Z,39.56
2019-06-10T06:53:50.650Z,38.62
2019-06-10T06:56:12.762Z,38.12
2019-06-10T06:58:43.309Z,39.03
2019-06-10T07:01:14.661Z,40.39
2019-06-10T07:03:44.961Z,39.40
2019-06-10T07:06:17.027Z,41.97
2019-06-10T07:09:00.230Z,39.02
2019-06-10T07:11:18.930Z,40.29
2019-06-10T07:13:47.624Z,41.25
2019-06-10T07:16:16.360Z,43.47
2019-06-10T07:18:50.022Z,40.84
2019-06-10T07:21:15.358Z,40.38
2019-06-10T07:23:46.821Z,39.89
2019-06-10T07:26:14.450Z,40.77
2019-06-10T07:28:47.105Z,40.71
2019-06-10T07:31:23.216Z,41.16
2019-06-10T07:33:46.925Z,40.36
2019-06-10T07:36:14.194Z,41.71
2019-06-10T07:38:48.799Z,38.66
2019-06-10T07:41:14.826Z,39.28
2019-06-10T07:43:49.491Z,37.99
2019-06-10T07:46:13.869Z,36.48
2019-06-10T07:48:48.056Z,36.23
2019-06-10T07:51:13.338Z,35.08
2019-06-10T07:53:46.150Z,34.01
2019-06-10T07:56:13.032Z,33.39
2019-06-10T07:58:46.983Z,28.74
2019-06-10T08:01:13.159Z,29.57
2019-06-10T08:03:46.006Z,29.99
2019-06-10T08:06:12.871Z,26.43
2019-06-10T08:08:44.773Z,24.61
2019-06-10T08:11:13.669Z,22.50
2019-06-10T08:13:45.907Z,23.13
2019-06-10T08:16:13.327Z,19.79
2019-06-10T08:19:13.821Z,17.81
2019-06-10T08:21:12.499Z,18.39
2019-06-10T08:23:44.800Z,17.60
2019-06-10T08:26:12.695Z,16.49
2019-06-10T08:28:44.541Z,15.75
2019-06-10T08:31:12.521Z,15.65
2019-06-10T08:33:44.389Z,14.43
2019-06-10T08:36:13.510Z,13.75
2019-06-10T08:38:44.900Z,12.33
2019-06-10T08:41:12.489Z,11.90
2019-06-10T08:43:44.700Z,12.70
2019-06-10T08:46:13.158Z,11.67
2019-06-10T08:48:45.779Z,11.80
2019-06-10T08:51:12.674Z,13.44
2019-06-10T08:53:44.099Z,12.83
2019-06-10T08:56:13.022Z,14.07
2019-06-10T08:58:45.675Z,12.89
2019-06-10T09:01:13.444Z,14.48
2019-06-10T09:03:46.350Z,16.25
2019-06-10T09:06:13.442Z,17.10
2019-06-10T09:08:45.778Z,19.84
2019-06-10T09:11:13.076Z,22.51
2019-06-10T09:13:45.475Z,25.03
2019-06-10T09:16:18.581Z,25.86
2019-06-10T09:18:47.328Z,27.16
2019-06-10T09:21:13.154Z,28.51
2019-06-10T09:23:47.274Z,29.26
2019-06-10T09:26:14.057Z,28.92
2019-06-10T09:28:47.155Z,29.61
2019-06-10T09:31:13.991Z,30.59
2019-06-10T09:33:49.949Z,31.83
2019-06-10T09:36:13.517Z,29.79
2019-06-10T09:38:45.763Z,26.04
2019-06-10T09:41:14.126Z,22.17
2019-06-10T09:43:49.989Z,19.79
2019-06-10T09:46:15.035Z,19.76
2019-06-10T09:48:48.549Z,21.66
2019-06-10T09:51:14.755Z,23.32
2019-06-10T09:53:54.054Z,25.90
2019-06-10T09:56:13.753Z,29.18
2019-06-10T09:58:46.055Z,31.99
2019-06-10T10:01:13.503Z,34.04
2019-06-10T10:03:46.925Z,47.25
2019-06-10T10:06:15.609Z,50.51
2019-06-10T10:08:46.047Z,54.82
2019-06-10T10:11:13.969Z,56.53
2019-06-10T10:13:46.053Z,57.78
2019-06-10T10:16:13.310Z,58.84
2019-06-10T10:18:46.948Z,62.39
2019-06-10T10:21:13.057Z,66.59
2019-06-10T10:23:56.544Z,66.63
2019-06-10T10:26:14.231Z,63.90
2019-06-10T10:28:44.632Z,58.49
2019-06-10T10:31:13.381Z,47.58
2019-06-10T10:33:42.630Z,36.92
2019-06-10T10:36:14.081Z,35.08
2019-06-10T10:38:42.608Z,34.81
2019-06-10T10:41:13.252Z,33.75
2019-06-10T10:43:44.825Z,34.43
2019-06-10T10:46:13.962Z,37.23
2019-06-10T10:48:43.092Z,38.88
2019-06-10T10:51:12.984Z,38.93
2019-06-10T10:53:48.261Z,42.02
2019-06-10T10:56:13.064Z,43.16
2019-06-10T10:58:43.830Z,43.61
2019-06-10T11:01:15.007Z,45.30
2019-06-10T11:03:45.450Z,47.81
2019-06-10T11:06:13.910Z,49.49
2019-06-10T11:08:44.625Z,50.71
2019-06-10T11:11:14.116Z,51.66
2019-06-10T11:13:45.517Z,52.66
2019-06-10T11:16:15.427Z,52.78
2019-06-10T11:18:45.217Z,50.64
2019-06-10T11:21:14.023Z,49.68
2019-06-10T11:23:43.631Z,45.21
2019-06-10T11:26:13.211Z,46.33
2019-06-10T11:28:43.042Z,43.78
2019-06-10T11:31:13.793Z,44.04
2019-06-10T11:33:43.581Z,43.13
2019-06-10T11:36:13.503Z,43.61
2019-06-10T11:38:42.471Z,45.53
2019-06-10T11:41:13.432Z,43.12
2019-06-10T11:43:42.952Z,47.48
2019-06-10T11:46:13.099Z,48.41
2019-06-10T11:48:43.524Z,49.44
2019-06-10T11:51:13.405Z,49.25
2019-06-10T11:53:44.069Z,50.05
2019-06-10T11:56:13.233Z,50.49
2019-06-10T11:58:42.821Z,51.53
2019-06-10T12:01:13.124Z,46.94
2019-06-10T12:03:43.190Z,48.05
2019-06-10T12:06:13.576Z,47.06
2019-06-10T12:08:43.452Z,41.52
2019-06-10T12:11:12.921Z,41.96
2019-06-10T12:13:42.921Z,41.21
2019-06-10T12:17:05.817Z,44.55
2019-06-10T12:18:42.798Z,42.47
2019-06-10T12:21:13.234Z,45.21
2019-06-10T12:23:43.472Z,43.89
2019-06-10T12:26:12.394Z,44.36
2019-06-10T12:28:43.208Z,45.89
2019-06-10T12:31:13.538Z,45.31
2019-06-10T12:33:42.244Z,44.57
2019-06-10T12:36:12.803Z,44.43
2019-06-10T12:38:43.422Z,44.02
2019-06-10T12:41:13.914Z,44.21
2019-06-10T12:43:43.349Z,44.62
2019-06-10T12:46:12.952Z,45.02
2019-06-10T12:48:42.563Z,46.93
2019-06-10T12:51:13.617Z,44.43
2019-06-10T12:53:43.234Z,44.67
2019-06-10T12:56:14.925Z,47.03
2019-06-10T12:58:43.395Z,48.46
2019-06-10T13:01:12.637Z,45.38
2019-06-10T13:03:43.751Z,44.07
2019-06-10T13:06:13.075Z,48.48
2019-06-10T13:08:43.685Z,43.92
2019-06-10T13:11:14.965Z,43.69
2019-06-10T13:13:44.055Z,44.63
2019-06-10T13:16:14.277Z,46.40
2019-06-10T13:18:43.284Z,43.21
2019-06-10T13:21:16.855Z,43.10
2019-06-10T13:23:43.135Z,42.18
2019-06-10T13:26:15.971Z,41.53
2019-06-10T13:28:44.320Z,42.40
2019-06-10T13:31:14.010Z,42.63
2019-06-10T13:33:43.241Z,42.94
2019-06-10T13:36:12.714Z,43.30
2019-06-10T13:38:42.870Z,49.04
2019-06-10T13:41:11.771Z,53.60
2019-06-10T13:43:43.210Z,58.54
2019-06-10T13:46:11.123Z,56.69
2019-06-10T13:48:39.924Z,57.08
2019-06-10T13:51:11.884Z,59.40
2019-06-10T13:53:39.025Z,59.21
2019-06-10T13:56:31.991Z,59.35
2019-06-10T13:58:38.025Z,60.90
2019-06-10T14:01:10.061Z,57.68
2019-06-10T14:03:37.123Z,57.71
2019-06-10T14:06:21.185Z,59.12
2019-06-10T14:08:36.705Z,59.24
2019-06-10T14:11:07.591Z,59.75
2019-06-10T14:13:35.694Z,56.44
2019-06-10T14:16:05.595Z,55.58
2019-06-10T14:18:35.171Z,53.92
2019-06-10T14:21:07.938Z,52.71
2019-06-10T14:23:34.957Z,53.91
2019-06-10T14:26:05.928Z,51.52
2019-06-10T14:28:40.636Z,51.80
2019-06-10T14:31:24.233Z,54.30
2019-06-10T14:33:34.833Z,52.03
2019-06-10T14:36:05.451Z,51.53
2019-06-10T14:38:34.036Z,52.37
2019-06-10T14:41:04.768Z,50.06
2019-06-10T14:43:33.454Z,50.64
2019-06-10T14:46:02.032Z,50.77
2019-06-10T14:48:33.516Z,48.71
2019-06-10T14:51:03.319Z,50.34
2019-06-10T14:53:33.744Z,49.83
2019-06-10T14:56:03.858Z,51.81
2019-06-10T14:58:32.479Z,51.59
2019-06-10T15:01:04.302Z,52.58
2019-06-10T15:03:32.772Z,52.53
2019-06-10T15:06:03.166Z,51.65
2019-06-10T15:08:32.345Z,53.05
2019-06-10T15:11:01.168Z,53.82
2019-06-10T15:13:32.533Z,52.82
2019-06-10T15:16:04.292Z,54.14
2019-06-10T15:18:33.020Z,54.54
2019-06-10T15:21:02.780Z,52.91
2019-06-10T15:23:32.428Z,51.87
2019-06-10T15:26:02.817Z,54.08
2019-06-10T15:28:31.779Z,55.91
2019-06-10T15:31:02.795Z,54.08
2019-06-10T15:33:32.679Z,54.87
2019-06-10T15:36:02.325Z,55.80
2019-06-10T15:38:32.770Z,54.93
2019-06-10T15:41:01.715Z,55.36
2019-06-10T15:43:32.877Z,54.97
2019-06-10T15:46:03.167Z,54.09
2019-06-10T15:48:31.300Z,55.48
2019-06-10T15:50:59.951Z,54.68
2019-06-10T15:53:28.591Z,55.33
2019-06-10T15:56:22.438Z,56.56
2019-06-10T15:58:27.606Z,55.48
2019-06-10T16:00:56.241Z,55.42
2019-06-10T16:03:25.767Z,55.00
2019-06-10T16:05:54.536Z,55.49
2019-06-10T16:08:23.121Z,56.98
2019-06-10T16:10:53.150Z,57.58
2019-06-10T16:13:25.551Z,56.10
2019-06-10T16:15:53.421Z,56.97
2019-06-10T16:18:26.038Z,55.47
2019-06-10T16:20:53.153Z,58.51
2019-06-10T16:23:24.504Z,58.13
2019-06-10T16:25:53.482Z,57.64
2019-06-10T16:28:23.391Z,57.79
2019-06-10T16:30:53.601Z,58.84
2019-06-10T16:33:27.277Z,58.82
2019-06-10T16:35:53.120Z,58.24
2019-06-10T16:38:24.156Z,57.37
2019-06-10T16:40:53.765Z,57.29
2019-06-10T16:43:24.429Z,57.94
2019-06-10T16:45:53.058Z,58.05
2019-06-10T16:48:22.202Z,58.90
2019-06-10T16:50:54.324Z,59.63
2019-06-10T16:53:26.729Z,60.14
2019-06-10T16:55:53.818Z,60.31
2019-06-10T16:58:25.359Z,61.68
2019-06-10T17:00:52.913Z,61.30
2019-06-10T17:03:25.077Z,61.97
2019-06-10T17:05:53.330Z,63.12
2019-06-10T17:08:24.933Z,62.65
2019-06-10T17:10:52.797Z,64.05
2019-06-10T17:13:25.250Z,64.25
2019-06-10T17:15:53.940Z,65.13
2019-06-10T17:18:23.583Z,65.60
2019-06-10T17:20:53.646Z,65.61
2019-06-10T17:23:26.674Z,65.45
2019-06-10T17:25:56.163Z,65.67
2019-06-10T17:28:29.766Z,65.11
2019-06-10T17:30:57.286Z,66.86
2019-06-10T17:33:27.799Z,67.96
2019-06-10T17:35:57.078Z,67.41
2019-06-10T17:38:26.883Z,67.79
2019-06-10T17:40:55.629Z,67.76
2019-06-10T17:43:25.211Z,68.66
2019-06-10T17:45:53.984Z,69.94
2019-06-10T17:48:33.776Z,69.01
2019-06-10T17:51:02.645Z,69.96
2019-06-10T17:53:34.711Z,70.26
2019-06-10T17:56:03.324Z,68.12
2019-06-10T17:58:48.770Z,70.13
2019-06-10T18:01:02.649Z,69.53
2019-06-10T18:03:31.450Z,70.42
2019-06-10T18:06:02.563Z,69.84
2019-06-10T18:08:32.337Z,69.67
2019-06-10T18:11:03.075Z,69.38
2019-06-10T18:13:34.697Z,69.60
2019-06-10T18:16:03.373Z,70.13
2019-06-10T18:18:35.648Z,69.21
2019-06-10T18:21:03.372Z,69.57
2019-06-10T18:23:35.061Z,70.71
2019-06-10T18:26:03.871Z,71.09
2019-06-10T18:28:45.528Z,70.88
2019-06-10T18:31:02.898Z,71.76
2019-06-10T18:33:34.511Z,71.90
2019-06-10T18:36:02.038Z,72.19
2019-06-10T18:38:33.945Z,72.30
2019-06-10T18:41:03.142Z,73.23
2019-06-10T18:43:32.561Z,72.92
2019-06-10T18:46:03.515Z,73.21
2019-06-10T18:48:36.012Z,73.51
2019-06-10T18:51:02.699Z,73.05
2019-06-10T18:53:34.487Z,73.04
2019-06-10T18:56:01.758Z,73.96
2019-06-10T18:58:33.003Z,73.46
2019-06-10T19:01:07.204Z,74.31
2019-06-10T19:03:34.616Z,73.99
2019-06-10T19:06:01.806Z,74.89
2019-06-10T19:08:33.704Z,74.38
2019-06-10T19:11:02.464Z,73.86
2019-06-10T19:13:34.382Z,75.12
2019-06-10T19:16:03.298Z,74.54
2019-06-10T19:18:32.035Z,74.19
2019-06-10T19:21:04.306Z,75.20
2019-06-10T19:23:34.736Z,73.81
2019-06-10T19:26:02.956Z,74.78
2019-06-10T19:28:33.861Z,74.16
2019-06-10T19:31:02.454Z,73.78
2019-06-10T19:33:34.110Z,73.44
2019-06-10T19:36:02.259Z,74.41
2019-06-10T19:38:32.457Z,74.80
2019-06-10T19:41:02.729Z,73.81
2019-06-10T19:43:34.489Z,73.91
2019-06-10T19:46:04.709Z,74.41
2019-06-10T19:48:37.718Z,72.67
2019-06-10T19:51:03.713Z,73.04
2019-06-10T19:53:33.082Z,73.12
2019-06-10T19:56:02.812Z,73.69
2019-06-10T19:58:32.302Z,73.75
2019-06-10T20:01:01.164Z,73.50
2019-06-10T20:03:29.797Z,73.82
2019-06-10T20:05:58.430Z,73.68
2019-06-10T20:08:27.119Z,74.46
2019-06-10T20:11:03.456Z,73.67
2019-06-10T20:13:32.560Z,73.64
2019-06-10T20:16:03.024Z,71.68
2019-06-10T20:18:33.244Z,72.41
2019-06-10T20:21:02.738Z,73.45
2019-06-10T20:23:33.299Z,73.09
2019-06-10T20:26:02.252Z,72.62
2019-06-10T20:28:32.166Z,72.09
2019-06-10T20:31:00.965Z,72.34
2019-06-10T20:33:37.083Z,71.83
2019-06-10T20:36:07.416Z,70.35
2019-06-10T20:38:35.502Z,71.29
2019-06-10T20:41:05.281Z,72.26
2019-06-10T20:43:33.951Z,72.82
2019-06-10T20:46:05.785Z,72.55
2019-06-10T20:48:33.482Z,72.93
2019-06-10T20:51:02.990Z,72.54
2019-06-10T20:53:33.716Z,72.30
2019-06-10T20:56:03.889Z,70.17
2019-06-10T20:58:33.199Z,68.95
2019-06-10T21:01:04.583Z,72.09
2019-06-10T21:03:32.561Z,71.67
2019-06-10T21:06:03.648Z,71.70
2019-06-10T21:08:33.985Z,70.77
2019-06-10T21:11:03.077Z,73.24
2019-06-10T21:13:32.935Z,74.69
2019-06-10T21:16:03.824Z,75.55
2019-06-10T21:18:33.137Z,74.31
2019-06-10T21:21:01.973Z,76.86
2019-06-10T21:23:30.645Z,75.48
2019-06-10T21:25:59.265Z,73.47
2019-06-10T21:28:27.914Z,73.44
2019-06-10T21:30:58.876Z,73.31
2019-06-10T21:33:26.909Z,75.48
2019-06-10T21:35:55.565Z,74.65
2019-06-10T21:38:24.279Z,75.99
2019-06-10T21:40:54.217Z,77.20
2019-06-10T21:43:22.975Z,77.70
2019-06-10T21:45:57.414Z,78.01
2019-06-10T21:48:23.042Z,76.38
2019-06-10T21:50:55.613Z,75.08
2019-06-10T21:53:22.487Z,75.98
2019-06-10T21:55:53.543Z,76.95
2019-06-10T21:58:22.536Z,77.26
2019-06-10T22:01:03.440Z,76.91
2019-06-10T22:03:23.467Z,76.33
2019-06-10T22:05:53.680Z,76.19
2019-06-10T22:08:22.414Z,76.35
2019-06-10T22:10:54.634Z,76.89
2019-06-10T22:13:22.382Z,76.86
2019-06-10T22:15:54.790Z,77.02
2019-06-10T22:18:22.869Z,78.22
2019-06-10T22:20:56.066Z,77.21
2019-06-10T22:23:23.268Z,78.01
2019-06-10T22:25:55.666Z,78.14
2019-06-10T22:28:22.598Z,78.58
2019-06-10T22:30:55.646Z,79.55
2019-06-10T22:33:22.595Z,79.75
2019-06-10T22:35:55.389Z,78.34
2019-06-10T22:38:22.285Z,76.62
2019-06-10T22:40:53.645Z,77.84
2019-06-10T22:43:23.506Z,78.44
2019-06-10T22:45:54.162Z,78.51
2019-06-10T22:48:22.647Z,79.06
2019-06-10T22:50:51.355Z,79.16
2019-06-10T22:53:22.978Z,78.68
2019-06-10T22:55:53.030Z,79.25
2019-06-10T22:58:23.634Z,79.08
2019-06-10T23:00:53.199Z,79.27
2019-06-10T23:03:21.984Z,79.25
2019-06-10T23:05:50.769Z,79.20
2019-06-10T23:08:19.455Z,79.60
2019-06-10T23:10:48.516Z,80.31
2019-06-10T23:13:17.321Z,80.21
2019-06-10T23:15:45.882Z,80.73
2019-06-10T23:18:14.679Z,80.82
2019-06-10T23:20:43.329Z,81.04
2019-06-10T23:23:12.931Z,79.90
2019-06-10T23:25:42.933Z,80.44
2019-06-10T23:28:12.971Z,79.34
2019-06-10T23:30:42.625Z,80.23
2019-06-10T23:33:12.594Z,80.18
2019-06-10T23:35:43.162Z,79.42
2019-06-10T23:38:13.265Z,80.12
2019-06-10T23:40:42.970Z,79.73
2019-06-10T23:43:13.177Z,79.83
2019-06-10T23:45:42.510Z,79.67
2019-06-10T23:48:13.355Z,78.68
2019-06-10T23:50:43.694Z,77.62
2019-06-10T23:53:13.109Z,78.13
2019-06-10T23:55:42.749Z,78.23
2019-06-10T23:58:12.875Z,79.15
